createdAt,value
2022-09-26T00:01:43.160Z,4.45
2022-09-26T00:04:22.734Z,4.63
2022-09-26T00:06:53.059Z,5.15
2022-09-26T00:09:22.219Z,5.30
2022-09-26T00:11:50.593Z,5.18
2022-09-26T00:14:22.569Z,4.57
2022-09-26T00:16:51.174Z,5.50
2022-09-26T00:19:21.181Z,5.43
2022-09-26T00:21:49.802Z,5.28
2022-09-26T00:24:18.246Z,5.93
2022-09-26T00:26:46.579Z,6.03
2022-09-26T00:29:15.420Z,6.18
2022-09-26T00:31:47.383Z,5.85
2022-09-26T00:34:19.215Z,6.72
2022-09-26T00:36:50.737Z,6.72
2022-09-26T00:39:19.575Z,6.30
2022-09-26T00:41:48.018Z,7.13
2022-09-26T00:44:44.851Z,7.15
2022-09-26T00:47:46.423Z,6.85
2022-09-26T00:50:21.479Z,7.68
2022-09-26T00:52:57.997Z,7.22
2022-09-26T00:55:35.010Z,8.10
2022-09-26T00:58:11.104Z,8.15
2022-09-26T01:00:42.443Z,7.65
2022-09-26T01:03:10.924Z,8.27
2022-09-26T01:05:39.872Z,8.38
2022-09-26T01:08:10.598Z,8.02
2022-09-26T01:10:39.013Z,7.78
2022-09-26T01:13:09.748Z,8.23
2022-09-26T01:15:38.259Z,8.65
2022-09-26T01:18:07.648Z,9.25
2022-09-26T01:20:50.546Z,8.55
2022-09-26T01:26:50.945Z,9.40
2022-09-26T01:30:21.383Z,10.35
2022-09-26T01:33:49.804Z,9.38
2022-09-26T01:36:52.532Z,11.00
2022-09-26T01:39:41.128Z,9.70
2022-09-26T01:42:22.263Z,11.95
2022-09-26T01:44:59.088Z,10.52
2022-09-26T01:47:30.903Z,10.60
2022-09-26T01:50:08.047Z,10.43
2022-09-26T01:52:40.493Z,9.48
2022-09-26T01:57:45.493Z,9.85
2022-09-26T02:00:14.450Z,10.07
2022-09-26T02:02:48.276Z,11.00
2022-09-26T02:05:26.642Z,10.13
2022-09-26T02:07:59.677Z,11.25
2022-09-26T02:10:35.100Z,9.88
2022-09-26T02:13:10.623Z,10.27
2022-09-26T02:15:40.536Z,11.82
2022-09-26T02:18:16.634Z,11.27
2022-09-26T02:20:55.686Z,11.77
2022-09-26T02:23:23.952Z,11.63
2022-09-26T02:25:55.622Z,11.52
2022-09-26T02:28:24.085Z,11.32
2022-09-26T02:30:55.276Z,12.45
2022-09-26T02:33:25.942Z,12.00
2022-09-26T02:35:55.086Z,11.48
2022-09-26T02:38:26.274Z,12.55
2022-09-26T02:41:16.509Z,10.98
2022-09-26T02:44:24.188Z,12.07
2022-09-26T02:47:22.385Z,11.55
2022-09-26T02:50:11.527Z,13.07
2022-09-26T02:52:53.585Z,12.70
2022-09-26T02:55:40.355Z,12.52
2022-09-26T02:58:19.050Z,12.90
2022-09-26T03:01:00.766Z,12.93
2022-09-26T03:03:36.785Z,13.40
2022-09-26T03:06:09.856Z,13.13
2022-09-26T03:08:43.775Z,12.90
2022-09-26T03:11:17.139Z,14.13
2022-09-26T03:13:47.205Z,11.65
2022-09-26T03:16:16.238Z,11.25
2022-09-26T03:18:53.478Z,11.60
2022-09-26T03:21:22.752Z,11.55
2022-09-26T03:23:52.608Z,10.88
2022-09-26T03:26:24.645Z,11.07
2022-09-26T03:28:59.978Z,11.10
2022-09-26T03:31:31.390Z,10.15
2022-09-26T03:34:05.974Z,10.50
2022-09-26T03:36:34.495Z,10.88
2022-09-26T03:39:05.948Z,10.32
2022-09-26T03:41:41.445Z,10.85
2022-09-26T03:44:38.965Z,9.18
2022-09-26T03:47:26.677Z,10.98
2022-09-26T03:49:55.118Z,10.20
2022-09-26T03:52:25.020Z,10.10
2022-09-26T03:54:54.805Z,9.80
2022-09-26T03:57:23.703Z,9.73
2022-09-26T03:59:57.588Z,10.85
2022-09-26T04:02:33.398Z,8.80
2022-09-26T04:05:18.260Z,9.77
2022-09-26T04:07:47.165Z,8.80
2022-09-26T04:10:17.071Z,8.70
2022-09-26T04:12:46.585Z,9.40
2022-09-26T04:15:16.346Z,9.75
2022-09-26T04:17:45.238Z,8.85
2022-09-26T04:20:14.429Z,10.25
2022-09-26T04:22:44.386Z,8.32
2022-09-26T04:25:12.650Z,8.75
2022-09-26T04:27:42.240Z,9.20
2022-09-26T04:30:12.961Z,8.38
2022-09-26T04:32:49.855Z,7.95
2022-09-26T04:35:30.227Z,7.55
2022-09-26T04:37:58.449Z,7.85
2022-09-26T04:40:26.874Z,8.45
2022-09-26T04:43:07.272Z,8.73
2022-09-26T04:45:35.524Z,7.53
2022-09-26T04:48:04.362Z,8.13
2022-09-26T04:50:57.312Z,7.35
2022-09-26T04:53:26.371Z,6.80
2022-09-26T04:56:04.676Z,6.65
2022-09-26T04:58:34.957Z,6.50
2022-09-26T05:01:04.994Z,6.38
2022-09-26T05:03:45.509Z,6.50
2022-09-26T05:06:17.460Z,6.60
2022-09-26T05:08:48.549Z,6.43
2022-09-26T05:11:22.210Z,6.97
2022-09-26T05:13:54.007Z,6.45
2022-09-26T05:16:24.049Z,6.88
2022-09-26T05:18:55.940Z,5.55
2022-09-26T05:21:27.083Z,5.70
2022-09-26T05:24:12.929Z,4.93
2022-09-26T05:26:44.720Z,5.13
2022-09-26T05:29:14.886Z,5.33
2022-09-26T05:32:13.723Z,5.85
2022-09-26T05:34:44.386Z,5.03
2022-09-26T05:37:16.189Z,4.82
2022-09-26T05:40:01.700Z,4.70
2022-09-26T05:42:31.742Z,3.92
2022-09-26T05:45:03.236Z,4.15
2022-09-26T05:47:36.197Z,3.88
2022-09-26T05:50:09.704Z,3.17
2022-09-26T05:52:38.969Z,3.88
2022-09-26T05:55:08.272Z,4.18
2022-09-26T05:57:58.401Z,3.70
2022-09-26T06:00:34.147Z,3.17
2022-09-26T06:03:03.920Z,3.28
2022-09-26T06:05:44.670Z,3.03
2022-09-26T06:11:07.190Z,3.00
2022-09-26T06:13:38.044Z,2.80
2022-09-26T06:16:11.460Z,2.65
2022-09-26T06:18:41.960Z,2.90
2022-09-26T06:21:13.174Z,2.83
2022-09-26T06:23:42.117Z,3.22
2022-09-26T06:26:20.669Z,2.17
2022-09-26T06:28:50.565Z,2.75
2022-09-26T06:31:22.027Z,2.25
2022-09-26T06:34:08.765Z,2.55
2022-09-26T06:36:46.900Z,2.25
2022-09-26T06:39:16.169Z,2.70
2022-09-26T06:41:46.564Z,2.92
2022-09-26T06:44:32.321Z,2.10
2022-09-26T06:47:20.855Z,1.73
2022-09-26T06:49:50.489Z,2.42
2022-09-26T06:52:34.170Z,2.00
2022-09-26T06:55:04.326Z,1.95
2022-09-26T06:57:40.051Z,2.03
2022-09-26T07:00:14.447Z,1.70
2022-09-26T07:03:08.267Z,1.75
2022-09-26T07:05:51.795Z,1.90
2022-09-26T07:08:28.737Z,1.88
2022-09-26T07:11:32.315Z,1.60
2022-09-26T07:13:54.897Z,1.90
2022-09-26T07:16:23.898Z,1.88
2022-09-26T07:19:01.396Z,1.92
2022-09-26T07:21:40.667Z,1.80
2022-09-26T07:24:27.380Z,1.80
2022-09-26T07:26:55.722Z,1.95
2022-09-26T07:29:24.078Z,1.85
2022-09-26T07:31:53.424Z,2.30
2022-09-26T07:37:07.527Z,1.75
2022-09-26T07:39:35.890Z,1.92
2022-09-26T07:42:04.848Z,1.75
2022-09-26T07:47:39.830Z,1.98
2022-09-26T07:50:16.832Z,2.00
2022-09-26T07:53:04.359Z,2.42
2022-09-26T07:55:32.879Z,2.30
2022-09-26T07:58:26.249Z,2.15
2022-09-26T08:01:19.032Z,2.17
2022-09-26T08:03:50.129Z,2.15
2022-09-26T08:06:35.320Z,2.17
2022-09-26T08:09:04.236Z,2.00
2022-09-26T08:11:51.390Z,2.30
2022-09-26T08:17:14.592Z,2.00
2022-09-26T08:19:43.401Z,1.52
2022-09-26T08:22:14.617Z,1.85
2022-09-26T08:24:45.147Z,1.70
2022-09-26T08:27:34.080Z,1.30
2022-09-26T08:30:04.263Z,1.80
2022-09-26T08:32:33.853Z,1.75
2022-09-26T08:35:02.779Z,1.65
2022-09-26T08:37:35.732Z,1.60
2022-09-26T08:40:29.601Z,2.20
2022-09-26T08:43:07.015Z,2.22
2022-09-26T08:46:33.343Z,2.05
2022-09-26T08:49:51.064Z,2.25
2022-09-26T08:52:31.687Z,1.60
2022-09-26T08:55:09.146Z,1.55
2022-09-26T08:57:43.378Z,1.73
2022-09-26T09:00:21.749Z,1.83
2022-09-26T09:03:07.759Z,2.38
2022-09-26T09:05:41.011Z,2.35
2022-09-26T09:08:17.358Z,2.50
2022-09-26T09:11:21.333Z,2.60
2022-09-26T09:14:03.748Z,1.90
2022-09-26T09:17:20.371Z,1.70
2022-09-26T09:20:20.763Z,2.00
2022-09-26T09:23:25.988Z,2.28
2022-09-26T09:29:22.800Z,1.90
2022-09-26T09:32:22.880Z,2.58
2022-09-26T09:35:17.472Z,1.98
2022-09-26T09:38:03.953Z,1.80
2022-09-26T09:40:46.808Z,1.92
2022-09-26T09:43:27.120Z,1.90
2022-09-26T09:46:03.261Z,1.60
2022-09-26T09:48:32.031Z,1.77
2022-09-26T09:51:27.929Z,1.63
2022-09-26T09:54:20.983Z,1.67
2022-09-26T09:59:53.964Z,1.38
2022-09-26T10:02:34.476Z,1.92
2022-09-26T10:07:48.427Z,1.98
2022-09-26T10:10:49.802Z,1.80
2022-09-26T10:13:38.886Z,1.55
2022-09-26T10:16:20.959Z,1.20
2022-09-26T10:19:03.338Z,1.70
2022-09-26T10:21:35.451Z,1.48
2022-09-26T10:24:05.140Z,2.00
2022-09-26T10:26:49.690Z,1.33
2022-09-26T10:29:35.157Z,1.67
2022-09-26T10:32:06.014Z,1.08
2022-09-26T10:34:39.202Z,1.42
2022-09-26T10:40:12.266Z,2.47
2022-09-26T10:42:43.208Z,1.40
2022-09-26T10:45:17.922Z,1.30
2022-09-26T10:48:07.676Z,1.52
2022-09-26T10:51:02.036Z,1.17
2022-09-26T10:53:44.000Z,1.17
2022-09-26T10:56:23.112Z,1.85
2022-09-26T10:58:57.333Z,1.80
2022-09-26T11:01:30.180Z,1.40
2022-09-26T11:04:36.296Z,1.25
2022-09-26T11:07:30.362Z,1.17
2022-09-26T11:10:24.084Z,1.20
2022-09-26T11:13:04.130Z,1.38
2022-09-26T11:15:32.795Z,1.77
2022-09-26T11:18:02.055Z,1.05
2022-09-26T11:20:51.690Z,1.30
2022-09-26T11:23:36.738Z,1.40
2022-09-26T11:26:17.049Z,0.88
2022-09-26T11:28:51.718Z,1.30
2022-09-26T11:31:50.053Z,1.77
2022-09-26T11:34:32.107Z,1.33
2022-09-26T11:37:32.761Z,1.83
2022-09-26T11:40:38.458Z,1.10
2022-09-26T11:43:24.376Z,1.70
2022-09-26T11:46:21.799Z,1.85
2022-09-26T11:49:46.121Z,1.52
2022-09-26T11:53:06.884Z,1.63
2022-09-26T11:55:55.148Z,1.83
2022-09-26T11:58:38.314Z,1.30
2022-09-26T12:01:19.819Z,1.48
2022-09-26T12:04:21.600Z,1.40
2022-09-26T12:06:57.468Z,1.25
2022-09-26T12:09:47.358Z,1.50
2022-09-26T12:12:24.386Z,1.98
2022-09-26T12:15:15.023Z,2.08
2022-09-26T12:17:59.645Z,1.58
2022-09-26T12:20:39.386Z,1.80
2022-09-26T12:23:21.490Z,1.50
2022-09-26T12:26:08.857Z,1.88
2022-09-26T12:29:05.185Z,1.80
2022-09-26T12:31:53.512Z,1.73
2022-09-26T12:34:44.761Z,1.85
2022-09-26T12:37:37.295Z,1.75
2022-09-26T12:40:41.095Z,1.65
2022-09-26T12:44:00.250Z,1.80
2022-09-26T12:47:16.075Z,1.40
2022-09-26T12:50:13.412Z,1.70
2022-09-26T12:53:19.176Z,1.20
2022-09-26T12:56:00.671Z,1.48
2022-09-26T12:58:46.323Z,1.77
2022-09-26T13:01:44.733Z,1.42
2022-09-26T13:04:56.907Z,1.75
2022-09-26T13:07:42.184Z,1.50
2022-09-26T13:10:39.344Z,1.65
2022-09-26T13:13:34.150Z,1.70
2022-09-26T13:16:21.407Z,1.60
2022-09-26T13:18:56.051Z,1.60
2022-09-26T13:21:40.521Z,1.95
2022-09-26T13:24:18.668Z,2.13
2022-09-26T13:26:54.571Z,2.03
2022-09-26T13:29:28.790Z,1.52
2022-09-26T13:32:20.399Z,1.85
2022-09-26T13:34:54.617Z,1.80
2022-09-26T13:37:38.371Z,1.50
2022-09-26T13:40:24.953Z,1.80
2022-09-26T13:43:09.101Z,2.55
2022-09-26T13:45:55.261Z,1.40
2022-09-26T13:48:42.189Z,2.00
2022-09-26T13:51:20.427Z,2.13
2022-09-26T13:54:03.917Z,1.80
2022-09-26T13:56:50.668Z,1.65
2022-09-26T13:59:35.890Z,1.58
2022-09-26T14:02:25.023Z,2.10
2022-09-26T14:05:10.907Z,1.90
2022-09-26T14:08:11.296Z,1.60
2022-09-26T14:10:41.882Z,1.92
2022-09-26T14:13:21.831Z,1.40
2022-09-26T14:16:26.511Z,1.40
2022-09-26T14:19:04.298Z,2.03
2022-09-26T14:21:42.907Z,1.83
2022-09-26T14:24:39.521Z,1.60
2022-09-26T14:27:43.613Z,1.75
2022-09-26T14:30:29.251Z,2.03
2022-09-26T14:33:03.576Z,1.55
2022-09-26T14:35:35.465Z,1.80
2022-09-26T14:38:15.009Z,1.80
2022-09-26T14:40:54.789Z,1.73
2022-09-26T14:43:26.291Z,1.63
2022-09-26T14:46:04.328Z,1.58
2022-09-26T14:48:37.462Z,2.13
2022-09-26T14:51:22.447Z,1.40
2022-09-26T14:54:00.904Z,1.20
2022-09-26T14:56:43.132Z,1.30
2022-09-26T14:59:45.563Z,1.90
2022-09-26T15:02:41.224Z,1.50
2022-09-26T15:05:26.341Z,1.58
2022-09-26T15:07:57.093Z,1.80
2022-09-26T15:10:40.258Z,1.85
2022-09-26T15:13:24.329Z,1.17
2022-09-26T15:16:05.680Z,1.67
2022-09-26T15:18:40.638Z,1.50
2022-09-26T15:21:26.382Z,1.40
2022-09-26T15:23:58.643Z,1.33
2022-09-26T15:26:33.506Z,1.50
2022-09-26T15:29:02.740Z,1.40
2022-09-26T15:31:39.681Z,1.48
2022-09-26T15:34:16.278Z,1.40
2022-09-26T15:36:49.685Z,1.83
2022-09-26T15:39:42.036Z,2.20
2022-09-26T15:42:45.719Z,2.13
2022-09-26T15:45:27.541Z,1.95
2022-09-26T15:47:57.199Z,1.42
2022-09-26T15:50:35.057Z,1.90
2022-09-26T15:53:09.601Z,1.60
2022-09-26T15:55:50.992Z,2.13
2022-09-26T15:58:25.007Z,1.73
2022-09-26T16:00:54.429Z,1.90
2022-09-26T16:03:52.726Z,1.50
2022-09-26T16:06:35.241Z,1.67
2022-09-26T16:09:17.187Z,1.80
2022-09-26T16:11:50.047Z,1.63
2022-09-26T16:14:27.556Z,1.92
2022-09-26T16:17:01.931Z,2.03
2022-09-26T16:19:35.736Z,2.17
2022-09-26T16:22:24.065Z,1.85
2022-09-26T16:24:52.909Z,1.98
2022-09-26T16:27:27.214Z,1.85
2022-09-26T16:30:04.987Z,2.97
2022-09-26T16:32:34.144Z,1.90
2022-09-26T16:35:19.707Z,1.85
2022-09-26T16:37:59.559Z,2.60
2022-09-26T16:40:28.895Z,1.92
2022-09-26T16:43:04.389Z,1.63
2022-09-26T16:45:34.618Z,1.80
2022-09-26T16:48:03.579Z,1.80
2022-09-26T16:50:36.638Z,1.85
2022-09-26T16:53:11.059Z,1.45
2022-09-26T16:55:39.632Z,1.60
2022-09-26T16:58:08.419Z,1.20
2022-09-26T17:00:56.108Z,1.70
2022-09-26T17:03:28.127Z,1.40
2022-09-26T17:05:58.551Z,1.50
2022-09-26T17:08:28.747Z,1.50
2022-09-26T17:11:02.330Z,2.47
2022-09-26T17:13:35.292Z,1.90
2022-09-26T17:16:06.150Z,1.73
2022-09-26T17:18:34.953Z,1.25
2022-09-26T17:21:04.060Z,1.70
2022-09-26T17:23:41.003Z,1.90
2022-09-26T17:26:21.531Z,1.30
2022-09-26T17:28:52.904Z,1.52
2022-09-26T17:31:23.232Z,1.60
2022-09-26T17:33:54.342Z,2.25
2022-09-26T17:36:25.916Z,1.70
2022-09-26T17:38:57.862Z,1.52
2022-09-26T17:41:28.027Z,1.92
2022-09-26T17:44:00.886Z,1.45
2022-09-26T17:46:30.986Z,1.50
2022-09-26T17:49:05.015Z,1.70
2022-09-26T17:51:34.307Z,1.92
2022-09-26T17:54:03.059Z,1.77
2022-09-26T17:56:31.361Z,1.90
2022-09-26T17:59:00.376Z,1.80
2022-09-26T18:01:34.254Z,1.50
2022-09-26T18:04:12.664Z,1.77
2022-09-26T18:06:43.026Z,1.30
2022-09-26T18:09:16.580Z,2.08
2022-09-26T18:11:55.743Z,1.80
2022-09-26T18:14:24.209Z,1.90
2022-09-26T18:16:54.341Z,2.15
2022-09-26T18:19:23.098Z,2.10
2022-09-26T18:21:56.105Z,1.63
2022-09-26T18:24:29.153Z,2.17
2022-09-26T18:27:03.741Z,1.90
2022-09-26T18:29:36.962Z,2.38
2022-09-26T18:32:20.033Z,2.75
2022-09-26T18:34:48.508Z,2.60
2022-09-26T18:37:17.514Z,1.90
2022-09-26T18:39:47.823Z,1.65
2022-09-26T18:42:22.506Z,2.08
2022-09-26T18:44:54.281Z,2.17
2022-09-26T18:47:24.522Z,2.10
2022-09-26T18:49:53.510Z,2.78
2022-09-26T18:52:22.633Z,2.10
2022-09-26T18:55:11.026Z,2.08
2022-09-26T18:57:57.658Z,1.85
2022-09-26T19:00:26.921Z,1.80
2022-09-26T19:02:57.729Z,2.40
2022-09-26T19:05:26.973Z,2.72
2022-09-26T19:07:55.601Z,2.33
2022-09-26T19:10:24.943Z,2.60
2022-09-26T19:12:53.343Z,2.90
2022-09-26T19:15:22.232Z,2.90
2022-09-26T19:17:51.301Z,3.05
2022-09-26T19:20:21.104Z,3.55
2022-09-26T19:22:50.679Z,3.40
2022-09-26T19:25:19.638Z,2.88
2022-09-26T19:27:52.154Z,2.95
2022-09-26T19:30:22.526Z,3.30
2022-09-26T19:32:53.712Z,3.83
2022-09-26T19:35:29.283Z,3.50
2022-09-26T19:37:58.748Z,4.80
2022-09-26T19:40:28.953Z,4.38
2022-09-26T19:42:58.132Z,4.07
2022-09-26T19:45:32.145Z,5.72
2022-09-26T19:48:01.091Z,5.40
2022-09-26T19:50:33.771Z,6.25
2022-09-26T19:55:33.746Z,6.47
2022-09-26T19:58:12.182Z,6.30
2022-09-26T20:00:44.513Z,6.53
2022-09-26T20:03:18.517Z,6.30
2022-09-26T20:05:49.352Z,6.70
2022-09-26T20:08:22.039Z,6.25
2022-09-26T20:13:20.179Z,7.88
2022-09-26T20:15:49.614Z,6.30
2022-09-26T20:18:21.852Z,7.00
2022-09-26T20:20:55.888Z,7.60
2022-09-26T20:23:28.625Z,7.88
2022-09-26T20:25:58.815Z,6.93
2022-09-26T20:28:27.352Z,7.30
2022-09-26T20:30:58.406Z,7.70
2022-09-26T20:33:28.444Z,5.78
2022-09-26T20:36:03.849Z,6.15
2022-09-26T20:38:39.367Z,6.50
2022-09-26T20:41:15.293Z,6.10
2022-09-26T20:43:49.505Z,6.25
2022-09-26T20:46:20.916Z,6.45
2022-09-26T20:48:51.191Z,6.93
2022-09-26T20:51:26.018Z,5.75
2022-09-26T20:53:54.737Z,5.32
2022-09-26T20:56:23.141Z,5.50
2022-09-26T20:58:52.231Z,6.03
2022-09-26T21:01:23.267Z,6.15
2022-09-26T21:03:55.282Z,5.95
2022-09-26T21:06:29.897Z,7.70
2022-09-26T21:08:58.853Z,5.97
2022-09-26T21:11:27.558Z,6.32
2022-09-26T21:13:56.485Z,6.40
2022-09-26T21:16:24.988Z,7.50
2022-09-26T21:18:54.514Z,6.65
2022-09-26T21:21:27.030Z,7.07
2022-09-26T21:26:51.059Z,7.38
2022-09-26T21:29:19.312Z,8.95
2022-09-26T21:31:51.264Z,8.15
2022-09-26T21:34:23.207Z,9.68
2022-09-26T21:36:56.956Z,8.95
2022-09-26T21:39:27.294Z,7.75
2022-09-26T21:41:59.544Z,7.93
2022-09-26T21:44:33.595Z,8.23
2022-09-26T21:47:02.615Z,7.53
2022-09-26T21:49:32.333Z,7.95
2022-09-26T21:52:08.673Z,7.85
2022-09-26T21:54:43.871Z,7.97
2022-09-26T21:57:18.014Z,7.20
2022-09-26T21:59:47.551Z,7.85
2022-09-26T22:02:16.320Z,8.32
2022-09-26T22:04:44.890Z,7.88
2022-09-26T22:07:15.724Z,7.63
2022-09-26T22:09:44.121Z,8.50
2022-09-26T22:12:12.638Z,8.20
2022-09-26T22:14:41.614Z,7.80
2022-09-26T22:17:10.388Z,7.25
2022-09-26T22:19:38.952Z,7.10
2022-09-26T22:22:07.799Z,8.48
2022-09-26T22:24:37.944Z,6.43
2022-09-26T22:27:07.531Z,6.20
2022-09-26T22:29:36.065Z,6.80
2022-09-26T22:32:06.091Z,6.30
2022-09-26T22:34:34.565Z,6.35
2022-09-26T22:37:03.260Z,5.85
2022-09-26T22:39:32.817Z,5.30
2022-09-26T22:42:02.619Z,5.10
2022-09-26T22:44:31.805Z,6.20
2022-09-26T22:47:00.407Z,5.78
2022-09-26T22:49:29.187Z,5.22
2022-09-26T22:51:57.970Z,5.80
2022-09-26T22:54:26.365Z,6.00
2022-09-26T22:56:54.743Z,5.95
2022-09-26T22:59:24.792Z,4.93
2022-09-26T23:01:53.558Z,4.95
2022-09-26T23:04:22.177Z,4.22
2022-09-26T23:06:50.831Z,3.38
2022-09-26T23:09:19.625Z,3.72
2022-09-26T23:11:48.014Z,3.08
2022-09-26T23:14:16.810Z,3.67
2022-09-26T23:16:46.913Z,3.17
2022-09-26T23:19:15.452Z,3.65
2022-09-26T23:21:43.984Z,3.53
2022-09-26T23:24:12.526Z,3.13
2022-09-26T23:26:41.404Z,2.83
2022-09-26T23:29:10.547Z,3.13
2022-09-26T23:31:39.394Z,2.88
2022-09-26T23:34:10.014Z,2.38
2022-09-26T23:36:39.089Z,2.55
2022-09-26T23:39:07.757Z,2.58
2022-09-26T23:41:36.513Z,2.95
2022-09-26T23:44:04.931Z,2.90
2022-09-26T23:46:33.498Z,3.28
2022-09-26T23:49:01.838Z,3.25
2022-09-26T23:51:31.613Z,3.15
2022-09-26T23:54:00.046Z,3.20
2022-09-26T23:56:28.581Z,3.10
2022-09-26T23:58:58.242Z,2.53
